createdAt,value
2019-01-25T00:01:26.276Z,11.77
2019-01-25T00:04:01.643Z,11.10
2019-01-25T00:06:36.244Z,11.60
2019-01-25T00:09:13.497Z,11.10
2019-01-25T00:11:48.153Z,11.57
2019-01-25T00:14:23.124Z,11.47
2019-01-25T00:16:57.662Z,11.30
2019-01-25T00:19:32.522Z,11.30
2019-01-25T00:22:07.447Z,11.90
2019-01-25T00:27:36.451Z,11.53
2019-01-25T00:30:12.442Z,11.77
2019-01-25T00:32:46.833Z,11.97
2019-01-25T00:35:21.494Z,12.57
2019-01-25T00:37:56.087Z,13.17
2019-01-25T00:40:30.545Z,14.03
2019-01-25T00:43:05.291Z,13.70
2019-01-25T00:45:39.652Z,14.50
2019-01-25T00:48:14.414Z,14.90
2019-01-25T00:50:48.968Z,14.63
2019-01-25T00:53:23.611Z,14.57
2019-01-25T00:55:58.384Z,15.47
2019-01-25T00:58:33.273Z,15.90
2019-01-25T01:01:07.822Z,16.03
2019-01-25T01:03:42.542Z,15.70
2019-01-25T01:06:17.700Z,16.73
2019-01-25T01:08:52.626Z,16.70
2019-01-25T01:11:27.057Z,17.33
2019-01-25T01:14:01.667Z,16.93
2019-01-25T01:16:35.867Z,16.77
2019-01-25T01:19:10.260Z,16.67
2019-01-25T01:21:45.277Z,16.03
2019-01-25T01:24:19.884Z,16.97
2019-01-25T01:26:54.531Z,15.30
2019-01-25T01:29:29.050Z,15.83
2019-01-25T01:32:03.944Z,15.27
2019-01-25T01:34:38.657Z,15.27
2019-01-25T01:37:13.533Z,16.33
2019-01-25T01:39:48.181Z,15.10
2019-01-25T01:42:22.436Z,14.90
2019-01-25T01:45:03.857Z,15.05
2019-01-25T01:47:38.756Z,13.67
2019-01-25T01:50:15.180Z,14.23
2019-01-25T01:52:50.302Z,15.72
2019-01-25T01:55:25.105Z,14.23
2019-01-25T01:58:03.056Z,13.93
2019-01-25T02:00:38.311Z,13.95
2019-01-25T02:03:12.672Z,14.07
2019-01-25T02:05:47.560Z,14.23
2019-01-25T02:08:22.307Z,13.93
2019-01-25T02:10:57.225Z,13.73
2019-01-25T02:13:31.648Z,14.40
2019-01-25T02:16:06.844Z,13.23
2019-01-25T02:18:41.471Z,13.37
2019-01-25T02:21:16.841Z,13.93
2019-01-25T02:24:09.389Z,13.60
2019-01-25T02:26:43.903Z,13.40
2019-01-25T02:29:19.191Z,14.13
2019-01-25T02:31:54.025Z,13.62
2019-01-25T02:34:28.728Z,13.07
2019-01-25T02:37:03.439Z,13.40
2019-01-25T02:39:37.732Z,13.13
2019-01-25T02:42:12.616Z,13.00
2019-01-25T02:44:47.157Z,13.00
2019-01-25T02:47:21.769Z,13.23
2019-01-25T02:49:56.846Z,13.70
2019-01-25T02:52:31.471Z,12.93
2019-01-25T02:55:06.283Z,13.03
2019-01-25T02:57:40.505Z,13.00
2019-01-25T03:00:23.689Z,13.03
2019-01-25T03:02:59.710Z,12.93
2019-01-25T03:05:34.247Z,12.67
2019-01-25T03:08:09.103Z,13.80
2019-01-25T03:10:47.202Z,14.68
2019-01-25T03:13:19.837Z,14.40
2019-01-25T03:15:54.319Z,15.13
2019-01-25T03:18:29.339Z,15.10
2019-01-25T03:21:05.161Z,15.88
2019-01-25T03:23:40.006Z,15.03
2019-01-25T03:26:14.566Z,16.02
2019-01-25T03:28:49.314Z,15.80
2019-01-25T03:31:23.601Z,16.10
2019-01-25T03:33:58.192Z,15.87
2019-01-25T03:36:32.941Z,16.30
2019-01-25T03:39:08.458Z,16.87
2019-01-25T03:41:43.283Z,16.35
2019-01-25T03:44:17.798Z,17.23
2019-01-25T03:46:52.692Z,16.73
2019-01-25T03:49:27.608Z,15.93
2019-01-25T03:52:02.123Z,16.57
2019-01-25T03:54:56.144Z,16.73
2019-01-25T03:57:30.916Z,15.40
2019-01-25T04:00:05.720Z,15.80
2019-01-25T04:02:40.386Z,16.62
2019-01-25T04:05:16.011Z,16.03
2019-01-25T04:07:50.506Z,16.57
2019-01-25T04:10:26.478Z,16.48
2019-01-25T04:13:01.070Z,15.35
2019-01-25T04:15:37.086Z,15.67
2019-01-25T04:18:11.674Z,15.50
2019-01-25T04:20:46.010Z,15.40
2019-01-25T04:23:20.381Z,16.23
2019-01-25T04:25:55.157Z,15.63
2019-01-25T04:28:29.905Z,14.37
2019-01-25T04:31:04.387Z,15.33
2019-01-25T04:33:39.075Z,15.40
2019-01-25T04:36:13.675Z,14.73
2019-01-25T04:38:48.618Z,13.95
2019-01-25T04:41:23.305Z,13.98
2019-01-25T04:43:57.879Z,14.80
2019-01-25T04:46:32.585Z,13.83
2019-01-25T04:49:07.868Z,14.13
2019-01-25T04:51:42.393Z,13.68
2019-01-25T04:54:35.823Z,14.03
2019-01-25T04:57:10.673Z,14.13
2019-01-25T04:59:45.268Z,13.63
2019-01-25T05:02:20.220Z,13.73
2019-01-25T05:04:54.979Z,13.22
2019-01-25T05:07:29.248Z,12.75
2019-01-25T05:10:04.979Z,12.40
2019-01-25T05:12:40.545Z,13.75
2019-01-25T05:15:15.576Z,13.30
2019-01-25T05:17:50.669Z,13.25
2019-01-25T05:20:25.597Z,13.47
2019-01-25T05:23:01.014Z,12.53
2019-01-25T05:25:35.986Z,13.08
2019-01-25T05:28:17.886Z,12.67
2019-01-25T05:30:57.375Z,12.23
2019-01-25T05:33:32.355Z,12.25
2019-01-25T05:36:07.132Z,12.47
2019-01-25T05:38:42.108Z,12.35
2019-01-25T05:41:17.168Z,11.68
2019-01-25T05:43:52.308Z,12.63
2019-01-25T05:46:26.853Z,12.37
2019-01-25T05:49:01.200Z,12.17
2019-01-25T05:51:36.499Z,12.67
2019-01-25T05:54:12.393Z,12.00
2019-01-25T05:56:49.662Z,11.80
2019-01-25T05:59:28.746Z,12.63
2019-01-25T06:02:03.796Z,12.63
2019-01-25T06:04:41.918Z,12.55
2019-01-25T06:07:16.935Z,11.50
2019-01-25T06:09:51.386Z,12.35
2019-01-25T06:12:26.197Z,12.10
2019-01-25T06:15:01.112Z,11.75
2019-01-25T06:17:35.412Z,12.80
2019-01-25T06:20:10.888Z,10.90
2019-01-25T06:22:45.400Z,10.97
2019-01-25T06:25:39.164Z,11.50
2019-01-25T06:28:26.343Z,11.55
2019-01-25T06:31:01.388Z,11.83
2019-01-25T06:33:35.716Z,12.43
2019-01-25T06:36:11.054Z,12.45
2019-01-25T06:38:46.174Z,11.53
2019-01-25T06:41:20.885Z,11.38
2019-01-25T06:43:55.093Z,12.07
2019-01-25T06:46:30.224Z,11.53
2019-01-25T06:49:04.933Z,11.80
2019-01-25T06:51:39.715Z,11.40
2019-01-25T06:54:14.784Z,11.57
2019-01-25T06:56:49.671Z,11.48
2019-01-25T06:59:38.235Z,11.68
2019-01-25T07:02:27.134Z,10.98
2019-01-25T07:05:01.722Z,10.90
2019-01-25T07:07:39.453Z,11.03
2019-01-25T07:10:17.576Z,12.18
2019-01-25T07:12:52.983Z,11.70
2019-01-25T07:15:27.768Z,11.63
2019-01-25T07:18:02.602Z,12.35
2019-01-25T07:20:38.438Z,10.70
2019-01-25T07:23:13.291Z,11.15
2019-01-25T07:25:48.455Z,11.22
2019-01-25T07:28:23.021Z,11.97
2019-01-25T07:30:57.788Z,10.68
2019-01-25T07:33:32.191Z,11.00
2019-01-25T07:36:06.955Z,11.10
2019-01-25T07:38:41.666Z,11.70
2019-01-25T07:41:16.587Z,11.70
2019-01-25T07:43:51.215Z,11.00
2019-01-25T07:46:25.665Z,11.73
2019-01-25T07:49:00.252Z,11.25
2019-01-25T07:51:35.103Z,11.78
2019-01-25T07:54:10.108Z,12.15
2019-01-25T07:56:44.815Z,12.40
2019-01-25T07:59:19.584Z,13.50
2019-01-25T08:01:54.494Z,14.53
2019-01-25T08:04:29.232Z,14.78
2019-01-25T08:07:03.770Z,13.70
2019-01-25T08:09:38.340Z,13.10
2019-01-25T08:12:13.067Z,14.95
2019-01-25T08:14:47.665Z,14.25
2019-01-25T08:17:22.614Z,14.07
2019-01-25T08:19:59.119Z,14.43
2019-01-25T08:22:33.203Z,14.80
2019-01-25T08:25:26.787Z,15.10
2019-01-25T08:28:02.032Z,16.23
2019-01-25T08:30:36.755Z,15.55
2019-01-25T08:33:11.947Z,14.80
2019-01-25T08:35:46.772Z,15.75
2019-01-25T08:38:21.741Z,15.68
2019-01-25T08:40:56.269Z,15.80
2019-01-25T08:43:31.333Z,14.28
2019-01-25T08:46:06.104Z,14.07
2019-01-25T08:48:41.013Z,15.20
2019-01-25T08:51:15.765Z,15.32
2019-01-25T08:53:50.547Z,15.10
2019-01-25T08:56:25.316Z,14.93
2019-01-25T08:59:00.526Z,13.70
2019-01-25T09:01:54.872Z,14.78
2019-01-25T09:04:29.363Z,14.60
2019-01-25T09:07:04.671Z,15.72
2019-01-25T09:09:39.218Z,14.98
2019-01-25T09:12:14.302Z,14.98
2019-01-25T09:14:48.827Z,14.65
2019-01-25T09:17:23.813Z,15.23
2019-01-25T09:19:58.238Z,15.25
2019-01-25T09:22:33.518Z,15.53
2019-01-25T09:25:07.967Z,15.85
2019-01-25T09:27:42.428Z,14.58
2019-01-25T09:30:19.330Z,15.88
2019-01-25T09:32:53.740Z,15.58
2019-01-25T09:35:28.868Z,15.48
2019-01-25T09:38:03.570Z,15.10
2019-01-25T09:40:38.296Z,15.40
2019-01-25T09:43:14.567Z,14.25
2019-01-25T09:45:48.957Z,15.28
2019-01-25T09:48:23.612Z,14.95
2019-01-25T09:50:58.902Z,14.83
2019-01-25T09:53:33.625Z,14.90
2019-01-25T09:56:08.187Z,15.28
2019-01-25T09:58:46.428Z,14.80
2019-01-25T10:01:21.643Z,14.78
2019-01-25T10:03:56.740Z,14.93
2019-01-25T10:06:31.390Z,14.47
2019-01-25T10:09:06.519Z,14.68
2019-01-25T10:11:43.416Z,14.40
2019-01-25T10:14:18.136Z,14.18
2019-01-25T10:16:53.494Z,15.18
2019-01-25T10:19:27.948Z,14.47
2019-01-25T10:22:02.795Z,14.78
2019-01-25T10:24:37.586Z,13.78
2019-01-25T10:27:11.811Z,15.03
2019-01-25T10:29:46.544Z,14.98
2019-01-25T10:32:21.610Z,15.28
2019-01-25T10:34:56.520Z,14.15
2019-01-25T10:37:31.694Z,14.00
2019-01-25T10:40:06.183Z,13.85
2019-01-25T10:42:45.535Z,14.40
2019-01-25T10:45:19.975Z,15.53
2019-01-25T10:47:54.933Z,15.03
2019-01-25T10:50:29.263Z,14.43
2019-01-25T10:53:04.733Z,14.75
2019-01-25T10:55:39.385Z,14.03
2019-01-25T10:58:33.356Z,13.55
2019-01-25T11:01:08.398Z,14.15
2019-01-25T11:03:43.314Z,13.80
2019-01-25T11:06:17.716Z,13.85
2019-01-25T11:08:53.042Z,14.55
2019-01-25T11:11:27.645Z,14.25
2019-01-25T11:14:02.456Z,13.88
2019-01-25T11:16:37.381Z,14.23
2019-01-25T11:19:12.293Z,14.30
2019-01-25T11:21:46.666Z,13.80
2019-01-25T11:24:21.112Z,14.13
2019-01-25T11:27:00.281Z,13.85
2019-01-25T11:29:32.184Z,12.73
2019-01-25T11:32:06.205Z,14.45
2019-01-25T11:34:41.192Z,13.75
2019-01-25T11:37:15.530Z,13.95
2019-01-25T11:39:50.370Z,13.25
2019-01-25T11:42:25.161Z,12.90
2019-01-25T11:44:59.578Z,13.08
2019-01-25T11:47:34.240Z,12.73
2019-01-25T11:50:09.268Z,12.97
2019-01-25T11:52:44.140Z,12.77
2019-01-25T11:55:18.987Z,12.95
2019-01-25T11:57:53.998Z,12.13
2019-01-25T12:00:29.967Z,12.00
2019-01-25T12:03:04.995Z,12.37
2019-01-25T12:05:40.149Z,12.93
2019-01-25T12:08:15.231Z,12.50
2019-01-25T12:10:49.602Z,13.00
2019-01-25T12:13:24.092Z,12.50
2019-01-25T12:15:58.867Z,11.33
2019-01-25T12:18:33.959Z,11.30
2019-01-25T12:21:26.358Z,12.80
2019-01-25T12:24:01.641Z,12.60
2019-01-25T12:26:36.431Z,13.13
2019-01-25T12:29:10.753Z,11.83
2019-01-25T12:31:45.596Z,11.87
2019-01-25T12:34:20.606Z,12.07
2019-01-25T12:36:55.091Z,12.30
2019-01-25T12:39:29.842Z,12.37
2019-01-25T12:42:04.588Z,12.33
2019-01-25T12:44:38.795Z,12.23
2019-01-25T12:47:13.700Z,12.33
2019-01-25T12:49:48.329Z,12.47
2019-01-25T12:52:23.172Z,11.93
2019-01-25T12:54:57.644Z,12.50
2019-01-25T12:57:32.740Z,11.60
2019-01-25T13:00:07.277Z,12.07
2019-01-25T13:02:42.478Z,12.27
2019-01-25T13:05:18.945Z,12.40
2019-01-25T13:07:54.050Z,11.57
2019-01-25T13:10:28.993Z,12.10
2019-01-25T13:13:03.724Z,12.17
2019-01-25T13:15:38.567Z,12.23
2019-01-25T13:18:13.222Z,12.33
2019-01-25T13:20:49.137Z,13.73
2019-01-25T13:23:23.295Z,12.90
2019-01-25T13:25:57.724Z,12.17
2019-01-25T13:28:32.686Z,12.67
2019-01-25T13:31:07.471Z,12.57
2019-01-25T13:33:42.395Z,12.80
2019-01-25T13:36:19.625Z,12.93
2019-01-25T13:38:55.025Z,13.10
2019-01-25T13:41:29.440Z,13.90
2019-01-25T13:44:04.277Z,14.03
2019-01-25T13:46:38.926Z,13.83
2019-01-25T13:49:13.758Z,13.70
2019-01-25T13:51:48.140Z,14.37
2019-01-25T13:54:22.649Z,14.60
2019-01-25T13:56:57.280Z,14.90
2019-01-25T13:59:31.940Z,15.53
2019-01-25T14:02:06.873Z,14.10
2019-01-25T14:04:41.844Z,14.87
2019-01-25T14:07:20.951Z,15.10
2019-01-25T14:09:52.857Z,14.57
2019-01-25T14:12:27.748Z,15.07
2019-01-25T14:15:02.290Z,15.23
2019-01-25T14:17:37.282Z,15.90
2019-01-25T14:20:14.118Z,16.87
2019-01-25T14:22:48.785Z,16.07
2019-01-25T14:25:23.611Z,16.60
2019-01-25T14:28:00.319Z,18.13
2019-01-25T14:30:42.675Z,17.27
2019-01-25T14:33:17.475Z,18.30
2019-01-25T14:35:52.042Z,18.17
2019-01-25T14:38:26.691Z,19.20
2019-01-25T14:41:01.382Z,17.87
2019-01-25T14:43:35.846Z,18.45
2019-01-25T14:46:29.902Z,19.47
2019-01-25T14:49:04.579Z,19.53
2019-01-25T14:51:39.486Z,19.67
2019-01-25T14:54:13.600Z,20.80
2019-01-25T14:56:48.489Z,21.37
2019-01-25T14:59:23.338Z,20.20
2019-01-25T15:01:57.863Z,19.83
2019-01-25T15:04:32.961Z,20.57
2019-01-25T15:07:07.784Z,21.33
2019-01-25T15:09:42.827Z,20.93
2019-01-25T15:12:17.356Z,20.17
2019-01-25T15:14:52.429Z,20.85
2019-01-25T15:17:27.251Z,20.67
2019-01-25T15:20:01.216Z,20.30
2019-01-25T15:22:35.659Z,20.07
2019-01-25T15:25:10.542Z,19.70
2019-01-25T15:27:45.534Z,19.50
2019-01-25T15:30:22.606Z,18.50
2019-01-25T15:32:57.493Z,19.27
2019-01-25T15:35:32.216Z,19.43
2019-01-25T15:38:07.171Z,19.23
2019-01-25T15:40:41.944Z,19.57
2019-01-25T15:43:17.254Z,20.03
2019-01-25T15:45:52.023Z,20.13
2019-01-25T15:48:26.835Z,19.13
2019-01-25T15:51:01.549Z,18.13
2019-01-25T15:53:37.474Z,19.63
2019-01-25T15:56:12.646Z,17.97
2019-01-25T15:58:47.241Z,18.53
2019-01-25T16:01:21.759Z,18.10
2019-01-25T16:03:56.756Z,17.77
2019-01-25T16:06:31.275Z,18.30
2019-01-25T16:09:07.559Z,18.10
2019-01-25T16:11:42.387Z,17.97
2019-01-25T16:14:19.969Z,17.90
2019-01-25T16:16:54.893Z,16.42
2019-01-25T16:19:29.403Z,17.27
2019-01-25T16:22:04.310Z,17.27
2019-01-25T16:24:38.792Z,17.37
2019-01-25T16:27:13.750Z,16.35
2019-01-25T16:29:48.395Z,17.57
2019-01-25T16:32:23.321Z,16.33
2019-01-25T16:34:58.508Z,16.57
2019-01-25T16:37:33.798Z,16.80
2019-01-25T16:40:09.465Z,16.83
2019-01-25T16:42:43.447Z,15.90
2019-01-25T16:45:21.217Z,16.25
2019-01-25T16:47:56.153Z,15.83
2019-01-25T16:50:31.030Z,15.93
2019-01-25T16:53:05.839Z,15.70
2019-01-25T16:55:40.471Z,16.50
2019-01-25T16:58:15.227Z,15.87
2019-01-25T17:00:51.204Z,16.17
2019-01-25T17:03:28.098Z,16.90
2019-01-25T17:06:04.802Z,16.80
2019-01-25T17:08:41.926Z,16.53
2019-01-25T17:11:16.866Z,16.53
2019-01-25T17:13:51.632Z,16.53
2019-01-25T17:16:26.212Z,17.00
2019-01-25T17:19:00.676Z,17.27
2019-01-25T17:21:35.403Z,18.33
2019-01-25T17:24:11.033Z,17.07
2019-01-25T17:26:45.349Z,17.60
2019-01-25T17:29:20.492Z,17.93
2019-01-25T17:31:54.901Z,19.40
2019-01-25T17:34:29.259Z,18.40
2019-01-25T17:37:04.318Z,17.90
2019-01-25T17:39:58.042Z,20.00
2019-01-25T17:42:32.536Z,20.97
2019-01-25T17:45:07.144Z,19.83
2019-01-25T17:47:41.913Z,20.47
2019-01-25T17:50:17.283Z,20.23
2019-01-25T17:53:11.013Z,20.07
2019-01-25T17:55:47.734Z,20.90
2019-01-25T17:58:21.732Z,21.07
2019-01-25T18:00:58.045Z,21.77
2019-01-25T18:03:32.512Z,22.27
2019-01-25T18:06:07.382Z,22.40
2019-01-25T18:08:42.485Z,21.47
2019-01-25T18:11:17.232Z,22.83
2019-01-25T18:13:52.257Z,22.77
2019-01-25T18:16:46.263Z,22.93
2019-01-25T18:19:21.071Z,23.33
2019-01-25T18:21:55.918Z,23.60
2019-01-25T18:24:30.092Z,23.70
2019-01-25T18:27:05.178Z,24.07
2019-01-25T18:29:47.294Z,22.77
2019-01-25T18:32:21.684Z,23.13
2019-01-25T18:34:56.345Z,23.93
2019-01-25T18:37:31.520Z,23.53
2019-01-25T18:40:06.002Z,23.90
2019-01-25T18:42:41.017Z,23.47
2019-01-25T18:45:34.649Z,23.90
2019-01-25T18:48:18.411Z,23.83
2019-01-25T18:50:52.847Z,23.53
2019-01-25T18:53:27.559Z,23.37
2019-01-25T18:56:01.891Z,24.20
2019-01-25T18:58:37.095Z,23.30
2019-01-25T19:01:11.648Z,23.77
2019-01-25T19:03:46.823Z,23.40
2019-01-25T19:06:21.793Z,23.70
2019-01-25T19:08:57.375Z,23.53
2019-01-25T19:11:32.007Z,23.67
2019-01-25T19:14:07.162Z,24.27
2019-01-25T19:16:42.326Z,24.73
2019-01-25T19:19:17.084Z,23.43
2019-01-25T19:21:51.935Z,23.10
2019-01-25T19:24:26.389Z,23.83
2019-01-25T19:27:01.270Z,23.83
2019-01-25T19:29:35.938Z,24.13
2019-01-25T19:32:10.574Z,24.00
2019-01-25T19:34:44.940Z,23.37
2019-01-25T19:37:19.738Z,22.90
2019-01-25T19:39:54.665Z,22.80
2019-01-25T19:42:29.309Z,22.27
2019-01-25T19:45:04.046Z,22.37
2019-01-25T19:47:57.969Z,22.63
2019-01-25T19:50:32.585Z,22.47
2019-01-25T19:53:08.318Z,24.10
2019-01-25T19:55:43.001Z,23.30
2019-01-25T19:58:19.870Z,23.60
2019-01-25T20:00:54.928Z,23.07
2019-01-25T20:03:29.370Z,22.63
2019-01-25T20:06:04.564Z,23.40
2019-01-25T20:08:39.292Z,23.17
2019-01-25T20:11:14.566Z,23.10
2019-01-25T20:13:49.694Z,22.27
2019-01-25T20:16:25.148Z,22.40
2019-01-25T20:18:59.916Z,22.17
2019-01-25T20:24:14.386Z,22.07
2019-01-25T20:26:49.112Z,22.40
2019-01-25T20:29:23.497Z,21.70
2019-01-25T20:31:58.387Z,23.03
2019-01-25T20:34:35.689Z,23.40
2019-01-25T20:37:10.101Z,22.50
2019-01-25T20:39:44.762Z,22.27
2019-01-25T20:42:19.625Z,21.33
2019-01-25T20:44:54.348Z,21.40
2019-01-25T20:47:29.956Z,21.73
2019-01-25T20:50:03.991Z,21.57
2019-01-25T20:52:58.111Z,21.83
2019-01-25T20:55:32.550Z,21.90
2019-01-25T20:58:07.476Z,22.40
2019-01-25T21:00:42.272Z,21.27
2019-01-25T21:03:19.017Z,21.33
2019-01-25T21:05:53.304Z,21.43
2019-01-25T21:08:28.162Z,20.77
2019-01-25T21:11:02.325Z,20.57
2019-01-25T21:13:37.987Z,21.13
2019-01-25T21:16:12.825Z,19.77
2019-01-25T21:18:47.170Z,20.97
2019-01-25T21:21:21.876Z,20.27
2019-01-25T21:23:56.629Z,20.60
2019-01-25T21:26:30.774Z,20.07
2019-01-25T21:29:05.176Z,21.40
2019-01-25T21:31:39.760Z,20.47
2019-01-25T21:34:14.131Z,20.23
2019-01-25T21:36:48.350Z,20.43
2019-01-25T21:39:23.295Z,20.73
2019-01-25T21:41:57.974Z,19.20
2019-01-25T21:44:51.353Z,20.30
2019-01-25T21:47:26.351Z,19.53
2019-01-25T21:50:00.438Z,20.53
2019-01-25T21:52:34.887Z,19.73
2019-01-25T21:55:09.933Z,20.20
2019-01-25T21:57:44.639Z,18.97
2019-01-25T22:00:27.669Z,20.43
2019-01-25T22:03:02.385Z,20.07
2019-01-25T22:05:36.836Z,20.07
2019-01-25T22:08:30.362Z,20.40
2019-01-25T22:11:05.353Z,19.43
2019-01-25T22:13:40.310Z,20.13
2019-01-25T22:16:15.090Z,19.90
2019-01-25T22:18:49.283Z,20.10
2019-01-25T22:21:23.868Z,19.40
2019-01-25T22:23:58.169Z,19.67
2019-01-25T22:26:32.902Z,19.97
2019-01-25T22:29:07.843Z,20.97
2019-01-25T22:31:42.223Z,19.77
2019-01-25T22:34:16.916Z,20.40
2019-01-25T22:36:51.529Z,20.93
2019-01-25T22:39:26.072Z,20.57
2019-01-25T22:42:00.407Z,19.67
2019-01-25T22:44:35.347Z,19.83
2019-01-25T22:47:09.551Z,21.53
2019-01-25T22:49:44.562Z,20.93
2019-01-25T22:52:19.189Z,20.80
2019-01-25T22:54:54.794Z,20.67
2019-01-25T22:57:30.339Z,20.57
2019-01-25T23:00:04.927Z,20.40
2019-01-25T23:02:40.130Z,20.63
2019-01-25T23:05:37.173Z,19.87
2019-01-25T23:08:11.792Z,21.47
2019-01-25T23:10:47.010Z,21.20
2019-01-25T23:13:21.591Z,21.33
2019-01-25T23:15:56.144Z,21.20
2019-01-25T23:18:30.955Z,21.40
2019-01-25T23:21:05.996Z,20.50
2019-01-25T23:23:40.648Z,21.17
2019-01-25T23:26:15.881Z,21.70
2019-01-25T23:28:50.410Z,21.53
2019-01-25T23:31:25.173Z,20.83
2019-01-25T23:33:59.715Z,21.63
2019-01-25T23:36:34.244Z,22.07
2019-01-25T23:39:10.732Z,21.53
2019-01-25T23:41:45.161Z,20.93
2019-01-25T23:44:19.700Z,22.97
2019-01-25T23:46:54.444Z,22.80
2019-01-25T23:49:29.084Z,21.60
2019-01-25T23:52:04.098Z,21.83
2019-01-25T23:54:38.767Z,21.87
2019-01-25T23:57:13.062Z,22.67
2019-01-25T23:59:47.835Z,23.63
